Time;durP1;ratioP1;P1;durP2;ratioP2;P2;SDS_P1;SDS_P2;PMS_P1;PMS_P2;Temp;Humidity;BMP_temperature;BMP_pressure;BME280_temperature;BME280_humidity;BME280_pressure;Samples;Min_cycle;Max_cycle;Signal;HPM_P1;HPM_P2
2022/03/08 00:00:39;;;;;;;1.85;1.00;;;;;;;-148.93;100.00;62180.91;20911634;28;20057;-76
2022/03/08 00:10:42;;;;;;;1.23;0.98;;;;;;;-148.93;100.00;62180.91;20908750;28;20048;-76
2022/03/08 00:20:44;;;;;;;1.45;0.90;;;;;;;-148.93;100.00;62180.91;20910177;28;20056;-76
2022/03/08 00:30:45;;;;;;;1.35;0.93;;;;;;;-148.93;100.00;62180.91;20892433;28;20045;-76
2022/03/08 00:40:47;;;;;;;1.70;1.33;;;;;;;-148.93;100.00;62180.91;20907390;28;20465;-76
2022/03/08 00:50:49;;;;;;;1.38;1.27;;;;;;;-148.93;100.00;62180.91;20890764;28;20048;-76
2022/03/08 01:00:51;;;;;;;1.35;1.10;;;;;;;-148.93;100.00;62180.91;20941705;28;20053;-76
2022/03/08 01:10:54;;;;;;;1.55;1.02;;;;;;;-148.93;100.00;62180.91;20954826;28;20037;-76
2022/03/08 01:20:58;;;;;;;1.20;1.10;;;;;;;-148.93;100.00;62180.91;20953563;28;20048;-76
2022/03/08 01:31:00;;;;;;;1.23;1.10;;;;;;;-148.93;100.00;62180.91;20945015;28;20045;-76
2022/03/08 01:41:02;;;;;;;1.58;1.10;;;;;;;-148.93;100.00;62180.91;20931563;28;20061;-76
2022/03/08 01:51:04;;;;;;;1.20;1.10;;;;;;;-148.93;100.00;62180.91;20941774;28;20052;-76
2022/03/08 02:01:07;;;;;;;1.60;1.20;;;;;;;-148.93;100.00;62180.91;20928803;28;20049;-76
2022/03/08 02:11:09;;;;;;;1.10;1.00;;;;;;;-148.93;100.00;62180.91;20935225;28;20072;-76
2022/03/08 02:21:11;;;;;;;1.30;1.00;;;;;;;-148.93;100.00;62180.91;20962964;28;20045;-76
2022/03/08 02:31:17;;;;;;;1.55;1.10;;;;;;;-148.93;100.00;62180.91;20940686;28;20043;-76
2022/03/08 02:41:19;;;;;;;;;;;;;;;-148.93;100.00;62180.91;21000500;28;20053;-76
2022/03/08 02:51:21;;;;;;;1.85;1.20;;;;;;;-148.93;100.00;62180.91;20956101;28;19928;-76
2022/03/08 03:01:22;;;;;;;1.73;1.20;;;;;;;-148.93;100.00;62180.91;20948504;28;20049;-76
2022/03/08 03:11:25;;;;;;;1.40;1.20;;;;;;;-148.93;100.00;62180.91;20930670;28;20135;-76
2022/03/08 03:21:26;;;;;;;2.00;1.30;;;;;;;-148.93;100.00;62180.91;20918505;28;20048;-77
2022/03/08 03:31:28;;;;;;;2.08;1.33;;;;;;;-148.93;100.00;62180.91;20949412;28;20052;-76
2022/03/08 03:41:30;;;;;;;1.33;1.20;;;;;;;-148.93;100.00;62180.91;20980433;28;20045;-76
2022/03/08 03:51:32;;;;;;;1.85;1.20;;;;;;;-148.93;100.00;62180.91;20952302;28;20102;-75
2022/03/08 04:01:34;;;;;;;1.27;1.17;;;;;;;-148.93;100.00;62180.91;20958784;28;20160;-75
2022/03/08 04:11:36;;;;;;;2.53;1.33;;;;;;;-148.93;100.00;62180.91;20959124;28;20049;-76
2022/03/08 04:21:38;;;;;;;2.22;1.38;;;;;;;-148.93;100.00;62180.91;20917743;28;20059;-76
2022/03/08 04:31:40;;;;;;;1.80;1.35;;;;;;;-148.93;100.00;62180.91;20910818;28;20491;-75
2022/03/08 04:41:42;;;;;;;1.75;1.50;;;;;;;-148.93;100.00;62180.91;20902872;28;20052;-75
2022/03/08 04:51:44;;;;;;;1.38;1.10;;;;;;;-148.93;100.00;62180.91;20897737;28;20041;-75
2022/03/08 05:01:46;;;;;;;1.98;1.60;;;;;;;-148.93;100.00;62180.91;20942091;28;20105;-75
2022/03/08 05:11:48;;;;;;;1.77;1.23;;;;;;;-148.93;100.00;62180.91;20887569;28;20049;-75
2022/03/08 05:21:50;;;;;;;2.08;1.30;;;;;;;-148.93;100.00;62180.91;20907812;28;20049;-74
2022/03/08 05:31:51;;;;;;;1.85;1.65;;;;;;;-148.93;100.00;62180.91;20946473;28;20051;-75
2022/03/08 05:41:53;;;;;;;1.55;1.35;;;;;;;-148.93;100.00;62180.91;20941058;28;20083;-77
2022/03/08 05:51:55;;;;;;;2.08;1.48;;;;;;;-148.93;100.00;62180.91;20936829;28;20037;-77
2022/03/08 06:01:57;;;;;;;2.45;1.75;;;;;;;-148.93;100.00;62180.91;20933025;28;20111;-77
2022/03/08 06:12:00;;;;;;;1.38;1.20;;;;;;;-148.93;100.00;62180.91;20948223;28;20037;-77
2022/03/08 06:22:03;;;;;;;1.90;1.60;;;;;;;-148.93;100.00;62180.91;20939968;28;20040;-77
2022/03/08 06:32:06;;;;;;;2.08;1.45;;;;;;;-148.93;100.00;62180.91;20924455;28;20556;-77
2022/03/08 06:42:08;;;;;;;2.25;1.67;;;;;;;-148.93;100.00;62180.91;20953504;28;20051;-77
2022/03/08 06:52:10;;;;;;;1.50;1.30;;;;;;;-148.93;100.00;62180.91;20919731;28;20053;-76
2022/03/08 07:02:12;;;;;;;2.88;1.80;;;;;;;-148.93;100.00;62180.91;20918705;28;20228;-77
2022/03/08 07:12:14;;;;;;;1.98;1.60;;;;;;;-148.93;100.00;62180.91;20916629;28;20060;-76
2022/03/08 07:22:17;;;;;;;2.00;1.48;;;;;;;-148.93;100.00;62180.91;20897034;28;20095;-76
2022/03/08 07:32:19;;;;;;;3.50;1.50;;;;;;;-148.93;100.00;62180.91;20896556;28;20052;-76
2022/03/08 07:42:21;;;;;;;1.60;1.35;;;;;;;-148.93;100.00;62180.91;20895674;28;20451;-76
2022/03/08 07:52:23;;;;;;;2.08;1.40;;;;;;;-148.93;100.00;62180.91;20894788;28;20446;-76
2022/03/08 08:02:25;;;;;;;1.70;1.27;;;;;;;-148.93;100.00;62180.91;20911535;28;20061;-76
2022/03/08 08:12:27;;;;;;;1.75;1.40;;;;;;;-148.93;100.00;62180.91;20909715;28;20403;-76
2022/03/08 08:22:29;;;;;;;1.77;1.20;;;;;;;-148.93;100.00;62180.91;20910108;28;20045;-76
2022/03/08 08:32:31;;;;;;;1.55;1.10;;;;;;;-148.93;100.00;62180.91;20909321;28;20049;-76
2022/03/08 08:42:33;;;;;;;1.73;1.10;;;;;;;-148.93;100.00;62180.91;20909007;28;20044;-76
2022/03/08 08:52:36;;;;;;;2.58;1.00;;;;;;;-148.93;100.00;62180.91;20908249;28;20069;-76
2022/03/08 09:02:40;;;;;;;1.98;1.08;;;;;;;-148.93;100.00;62180.91;20906976;28;20064;-77
2022/03/08 09:12:43;;;;;;;0.93;0.87;;;;;;;-148.93;100.00;62180.91;20906344;28;20040;-77
2022/03/08 09:22:45;;;;;;;1.80;1.20;;;;;;;-148.93;100.00;62180.91;20905604;28;20056;-76
2022/03/08 09:32:47;;;;;;;1.10;1.00;;;;;;;-148.93;100.00;62180.91;20905158;28;20045;-77
2022/03/08 09:42:50;;;;;;;1.10;0.98;;;;;;;-148.93;100.00;62180.91;20904565;28;20052;-76
2022/03/08 09:52:54;;;;;;;1.67;1.00;;;;;;;-148.93;100.00;62180.91;20904921;28;20045;-76
2022/03/08 10:02:57;;;;;;;1.05;0.88;;;;;;;-148.93;100.00;62180.91;20886513;28;20057;-76
2022/03/08 10:12:59;;;;;;;2.05;0.98;;;;;;;-148.93;100.00;62180.91;20903911;28;20049;-76
2022/03/08 10:23:08;;;;;;;2.00;1.30;;;;;;;-148.93;100.00;62180.91;20903959;28;20044;-76
2022/03/08 10:33:11;;;;;;;1.27;1.00;;;;;;;-148.93;100.00;62180.91;20890182;28;20379;-76
2022/03/08 10:43:15;;;;;;;1.27;0.98;;;;;;;-148.93;100.00;62180.91;20918072;28;20040;-76
2022/03/08 10:53:17;;;;;;;1.20;1.08;;;;;;;-148.93;100.00;62180.91;20917495;28;20048;-76
2022/03/08 11:03:21;;;;;;;1.90;1.10;;;;;;;-148.93;100.00;62180.91;20916050;28;20064;-76
2022/03/08 11:13:23;;;;;;;2.70;1.02;;;;;;;-148.93;100.00;62180.91;20897890;28;20045;-76
2022/03/08 11:23:25;;;;;;;1.30;1.05;;;;;;;-148.93;100.00;62180.91;20914822;28;20052;-76
2022/03/08 11:34:09;;;;;;;1.40;0.85;;;;;;;-148.93;100.00;62180.91;20895901;28;20049;-76
2022/03/08 11:44:32;;;;;;;1.63;0.90;;;;;;;-148.93;100.00;62180.91;20742181;28;20056;-76
2022/03/08 11:54:34;;;;;;;1.50;1.10;;;;;;;-148.93;100.00;62180.91;20912465;28;20343;-76
2022/03/08 12:04:45;;;;;;;3.47;1.15;;;;;;;-148.93;100.00;62180.91;20911908;28;20060;-76
2022/03/08 12:14:49;;;;;;;2.10;1.00;;;;;;;-148.93;100.00;62180.91;20910794;28;20107;-76
2022/03/08 12:24:56;;;;;;;2.17;1.08;;;;;;;-148.93;100.00;62180.91;20909981;28;20057;-76
2022/03/08 12:35:01;;;;;;;1.88;1.38;;;;;;;-148.93;100.00;62180.91;20925919;28;20048;-76
2022/03/08 12:45:11;;;;;;;1.17;0.93;;;;;;;-148.93;100.00;62180.91;20973963;28;20063;-76
2022/03/08 12:55:16;;;;;;;1.52;1.10;;;;;;;-148.93;100.00;62180.91;20989861;28;20052;-76
2022/03/08 13:05:24;;;;;;;1.15;0.90;;;;;;;-148.93;100.00;62180.91;20989526;28;20059;-76
2022/03/08 13:15:26;;;;;;;1.58;0.93;;;;;;;-148.93;100.00;62180.91;20989483;28;20135;-76
2022/03/08 13:25:29;;;;;;;1.27;1.00;;;;;;;-148.93;100.00;62180.91;20972347;28;20048;-76
2022/03/08 13:35:34;;;;;;;1.23;1.08;;;;;;;-148.93;100.00;62180.91;20987445;28;20083;-76
2022/03/08 13:45:38;;;;;;;1.33;1.10;;;;;;;-148.93;100.00;62180.91;20939886;28;20099;-76
2022/03/08 13:55:42;;;;;;;1.42;1.10;;;;;;;-148.93;100.00;62180.91;20886622;28;20494;-76
2022/03/08 14:05:47;;;;;;;0.95;0.90;;;;;;;-148.93;100.00;62180.91;20905263;28;20060;-76
2022/03/08 14:15:56;;;;;;;1.40;1.10;;;;;;;-148.93;100.00;62180.91;20920397;28;20057;-76
2022/03/08 14:25:59;;;;;;;1.35;0.90;;;;;;;-148.93;100.00;62180.91;20921884;28;20048;-76
2022/03/08 14:36:01;;;;;;;1.13;0.80;;;;;;;-148.93;100.00;62180.91;20982815;28;20060;-78
2022/03/08 14:46:02;;;;;;;0.85;0.70;;;;;;;-148.93;100.00;62180.91;20982957;28;20047;-75
2022/03/08 14:56:14;;;;;;;1.80;0.90;;;;;;;-148.93;100.00;62180.91;21000717;28;20048;-74
2022/03/08 15:06:16;;;;;;;1.40;1.00;;;;;;;-148.93;100.00;62180.91;20999616;28;20114;-75
2022/03/08 15:16:18;;;;;;;0.90;0.90;;;;;;;-148.93;100.00;62180.91;20997895;28;20048;-75
2022/03/08 15:26:21;;;;;;;3.38;1.00;;;;;;;-148.93;100.00;62180.91;20979934;28;20056;-75
2022/03/08 15:36:23;;;;;;;2.10;1.20;;;;;;;-148.93;100.00;62180.91;20996804;28;20036;-75
2022/03/08 15:46:25;;;;;;;1.55;0.90;;;;;;;-148.93;100.00;62180.91;20996393;28;20735;-75
2022/03/08 15:56:28;;;;;;;2.45;0.93;;;;;;;-148.93;100.00;62180.91;20995368;28;20056;-75
2022/03/08 16:06:31;;;;;;;1.70;0.90;;;;;;;-148.93;100.00;62180.91;20994439;28;20045;-76
2022/03/08 16:16:33;;;;;;;0.95;0.90;;;;;;;-148.93;100.00;62180.91;20976061;28;20551;-77
2022/03/08 16:26:36;;;;;;;1.85;1.00;;;;;;;-148.93;100.00;62180.91;20992652;28;20059;-76
2022/03/08 16:36:38;;;;;;;0.85;0.73;;;;;;;-148.93;100.00;62180.91;20990934;28;20048;-77
2022/03/08 16:46:41;;;;;;;1.50;1.00;;;;;;;-148.93;100.00;62180.91;20973604;28;20057;-76
2022/03/08 16:56:43;;;;;;;0.68;0.68;;;;;;;-148.93;100.00;62180.91;20990442;28;20067;-76
2022/03/08 17:06:44;;;;;;;1.75;0.70;;;;;;;-148.93;100.00;62180.91;20990181;28;20098;-77
2022/03/08 17:16:46;;;;;;;1.20;0.70;;;;;;;-148.93;100.00;62180.91;20989268;28;20049;-76
2022/03/08 17:26:49;;;;;;;1.95;0.70;;;;;;;-148.93;100.00;62180.91;20989237;28;20076;-76
2022/03/08 17:36:51;;;;;;;1.17;0.52;;;;;;;-148.93;100.00;62180.91;20954899;28;20091;-76
2022/03/08 17:46:54;;;;;;;1.02;0.70;;;;;;;-148.93;100.00;62180.91;21001744;28;20052;-76
2022/03/08 17:56:56;;;;;;;0.80;0.68;;;;;;;-148.93;100.00;62180.91;21004986;28;20080;-76
2022/03/08 18:06:59;;;;;;;0.47;0.47;;;;;;;-148.93;100.00;62180.91;21004013;28;20044;-76
2022/03/08 18:17:03;;;;;;;2.25;0.60;;;;;;;-148.93;100.00;62180.91;20978702;28;20128;-76
2022/03/08 18:27:07;;;;;;;2.13;0.80;;;;;;;-148.93;100.00;62180.91;20919729;28;20068;-79
2022/03/08 18:37:09;;;;;;;2.42;0.73;;;;;;;-148.93;100.00;62180.91;20901224;28;20388;-77
2022/03/08 18:47:11;;;;;;;1.52;0.77;;;;;;;-148.93;100.00;62180.91;20900501;28;20057;-77
2022/03/08 18:57:13;;;;;;;0.70;0.68;;;;;;;-148.93;100.00;62180.91;20916321;28;20140;-77
2022/03/08 19:07:15;;;;;;;1.98;0.70;;;;;;;-148.93;100.00;62180.91;20916785;28;20045;-77
2022/03/08 19:17:17;;;;;;;2.03;0.93;;;;;;;-148.93;100.00;62180.91;20915659;28;20065;-77
2022/03/08 19:27:19;;;;;;;1.30;0.80;;;;;;;-148.93;100.00;62180.91;20897088;28;20087;-77
2022/03/08 19:37:21;;;;;;;1.35;0.90;;;;;;;-148.93;100.00;62180.91;20896289;28;20537;-77
2022/03/08 19:47:23;;;;;;;2.60;0.82;;;;;;;-148.93;100.00;62180.91;20913333;28;20041;-77
2022/03/08 19:57:25;;;;;;;1.58;0.80;;;;;;;-148.93;100.00;62180.91;20912477;28;20106;-77
2022/03/08 20:07:27;;;;;;;1.88;1.00;;;;;;;-148.93;100.00;62180.91;20894286;28;20056;-77
2022/03/08 20:17:28;;;;;;;1.45;1.08;;;;;;;-148.93;100.00;62180.91;20893168;28;20053;-77
2022/03/08 20:27:32;;;;;;;1.83;0.95;;;;;;;-148.93;100.00;62180.91;20892445;28;20084;-77
2022/03/08 20:37:34;;;;;;;2.60;1.10;;;;;;;-148.93;100.00;62180.91;20909238;28;20053;-77
2022/03/08 20:47:36;;;;;;;1.45;0.90;;;;;;;-148.93;100.00;62180.91;20908593;28;20049;-78
2022/03/08 20:57:37;;;;;;;0.90;0.70;;;;;;;-148.93;100.00;62180.91;20908104;28;20045;-77
2022/03/08 21:07:42;;;;;;;1.50;0.90;;;;;;;-148.93;100.00;62180.91;20874244;28;20049;-78
2022/03/08 21:17:44;;;;;;;1.27;0.85;;;;;;;-148.93;100.00;62180.91;20855805;28;20103;-77
2022/03/08 21:27:46;;;;;;;2.40;1.10;;;;;;;-148.93;100.00;62180.91;20888610;28;20446;-78
2022/03/08 21:37:48;;;;;;;1.20;0.77;;;;;;;-148.93;100.00;62180.91;20887949;28;20049;-77
2022/03/08 21:47:49;;;;;;;1.20;0.80;;;;;;;-148.93;100.00;62180.91;20905256;28;20053;-77
2022/03/08 21:57:51;;;;;;;1.05;0.60;;;;;;;-148.93;100.00;62180.91;20870756;28;20037;-78
2022/03/08 22:07:53;;;;;;;0.77;0.60;;;;;;;-148.93;100.00;62180.91;20904273;28;20445;-78
2022/03/08 22:17:55;;;;;;;0.70;0.70;;;;;;;-148.93;100.00;62180.91;20904089;28;20045;-78
2022/03/08 22:27:57;;;;;;;1.70;1.00;;;;;;;-148.93;100.00;62180.91;20889152;28;20037;-78
2022/03/08 22:37:59;;;;;;;0.77;0.70;;;;;;;-148.93;100.00;62180.91;20901265;28;20049;-78
2022/03/08 22:48:01;;;;;;;1.50;0.70;;;;;;;-148.93;100.00;62180.91;20918397;28;20398;-78
2022/03/08 22:58:03;;;;;;;0.90;0.60;;;;;;;-148.93;100.00;62180.91;20900269;28;20044;-78
2022/03/08 23:08:05;;;;;;;1.30;0.70;;;;;;;-148.93;100.00;62180.91;20898640;28;20057;-78
2022/03/08 23:18:07;;;;;;;0.75;0.50;;;;;;;-148.93;100.00;62180.91;20898666;28;20056;-78
2022/03/08 23:28:09;;;;;;;1.10;0.60;;;;;;;-148.93;100.00;62180.91;20915178;28;20060;-79
2022/03/08 23:38:11;;;;;;;0.82;0.60;;;;;;;-148.93;100.00;62180.91;20895998;28;20052;-78
2022/03/08 23:48:13;;;;;;;0.85;0.63;;;;;;;-148.93;100.00;62180.91;20896045;28;20055;-78
2022/03/08 23:58:15;;;;;;;1.33;0.70;;;;;;;-148.93;100.00;62180.91;20912610;28;20044;-78
